sensor_id;sensor_type;location;lat;lon;timestamp;P1;durP1;ratioP1;P2;durP2;ratioP2
37199;SDS011;23096;50.892;16.746;2023-03-21T00:00:37;12.30;;;8.10;;
37199;SDS011;23096;50.892;16.746;2023-03-21T00:03:03;13.70;;;9.10;;
37199;SDS011;23096;50.892;16.746;2023-03-21T00:05:29;14.40;;;9.60;;
37199;SDS011;23096;50.892;16.746;2023-03-21T00:07:55;14.40;;;9.10;;
37199;SDS011;23096;50.892;16.746;2023-03-21T00:10:21;15.10;;;9.60;;
37199;SDS011;23096;50.892;16.746;2023-03-21T00:12:47;14.00;;;10.40;;
37199;SDS011;23096;50.892;16.746;2023-03-21T00:15:19;13.90;;;10.10;;
37199;SDS011;23096;50.892;16.746;2023-03-21T00:17:45;12.40;;;9.00;;
37199;SDS011;23096;50.892;16.746;2023-03-21T00:20:14;15.40;;;10.70;;
37199;SDS011;23096;50.892;16.746;2023-03-21T00:22:41;15.30;;;10.70;;
37199;SDS011;23096;50.892;16.746;2023-03-21T00:25:07;17.70;;;10.70;;
37199;SDS011;23096;50.892;16.746;2023-03-21T00:27:35;15.50;;;10.70;;
37199;SDS011;23096;50.892;16.746;2023-03-21T00:30:02;13.10;;;10.10;;
37199;SDS011;23096;50.892;16.746;2023-03-21T00:32:29;15.00;;;10.70;;
37199;SDS011;23096;50.892;16.746;2023-03-21T00:34:54;16.20;;;10.40;;
37199;SDS011;23096;50.892;16.746;2023-03-21T00:37:20;13.90;;;10.30;;
37199;SDS011;23096;50.892;16.746;2023-03-21T00:39:46;15.50;;;10.60;;
37199;SDS011;23096;50.892;16.746;2023-03-21T00:42:14;13.50;;;10.20;;
37199;SDS011;23096;50.892;16.746;2023-03-21T00:44:41;16.40;;;11.70;;
37199;SDS011;23096;50.892;16.746;2023-03-21T00:47:07;15.70;;;10.50;;
37199;SDS011;23096;50.892;16.746;2023-03-21T00:49:34;14.00;;;10.00;;
37199;SDS011;23096;50.892;16.746;2023-03-21T00:52:03;15.00;;;10.40;;
37199;SDS011;23096;50.892;16.746;2023-03-21T00:54:32;15.50;;;10.00;;
37199;SDS011;23096;50.892;16.746;2023-03-21T00:57:00;14.00;;;10.10;;
37199;SDS011;23096;50.892;16.746;2023-03-21T00:59:27;13.30;;;9.90;;
37199;SDS011;23096;50.892;16.746;2023-03-21T01:01:52;12.30;;;9.30;;
37199;SDS011;23096;50.892;16.746;2023-03-21T01:04:18;12.40;;;9.20;;
37199;SDS011;23096;50.892;16.746;2023-03-21T01:06:46;12.90;;;9.60;;
37199;SDS011;23096;50.892;16.746;2023-03-21T01:11:39;15.50;;;9.90;;
37199;SDS011;23096;50.892;16.746;2023-03-21T01:14:06;16.00;;;10.20;;
37199;SDS011;23096;50.892;16.746;2023-03-21T01:16:32;13.10;;;9.40;;
37199;SDS011;23096;50.892;16.746;2023-03-21T01:18:57;15.50;;;9.90;;
37199;SDS011;23096;50.892;16.746;2023-03-21T01:21:23;14.30;;;9.80;;
37199;SDS011;23096;50.892;16.746;2023-03-21T01:23:49;15.60;;;10.60;;
37199;SDS011;23096;50.892;16.746;2023-03-21T01:26:15;13.60;;;10.30;;
37199;SDS011;23096;50.892;16.746;2023-03-21T01:28:42;18.50;;;10.60;;
37199;SDS011;23096;50.892;16.746;2023-03-21T01:31:10;20.80;;;13.00;;
37199;SDS011;23096;50.892;16.746;2023-03-21T01:33:37;17.70;;;12.10;;
37199;SDS011;23096;50.892;16.746;2023-03-21T01:36:03;19.00;;;12.30;;
37199;SDS011;23096;50.892;16.746;2023-03-21T01:38:30;16.60;;;12.40;;
37199;SDS011;23096;50.892;16.746;2023-03-21T01:40:58;17.00;;;11.80;;
37199;SDS011;23096;50.892;16.746;2023-03-21T01:43:34;21.30;;;12.70;;
37199;SDS011;23096;50.892;16.746;2023-03-21T01:46:25;20.80;;;13.30;;
37199;SDS011;23096;50.892;16.746;2023-03-21T01:49:17;17.50;;;12.20;;
37199;SDS011;23096;50.892;16.746;2023-03-21T01:51:59;19.80;;;11.30;;
37199;SDS011;23096;50.892;16.746;2023-03-21T01:54:31;19.10;;;11.50;;
37199;SDS011;23096;50.892;16.746;2023-03-21T01:57:03;15.70;;;11.70;;
37199;SDS011;23096;50.892;16.746;2023-03-21T02:02:26;17.70;;;12.30;;
37199;SDS011;23096;50.892;16.746;2023-03-21T02:05:07;18.90;;;13.80;;
37199;SDS011;23096;50.892;16.746;2023-03-21T02:07:33;16.80;;;11.70;;
37199;SDS011;23096;50.892;16.746;2023-03-21T02:10:04;18.60;;;11.00;;
37199;SDS011;23096;50.892;16.746;2023-03-21T02:12:32;17.30;;;12.30;;
37199;SDS011;23096;50.892;16.746;2023-03-21T02:14:58;18.30;;;12.30;;
37199;SDS011;23096;50.892;16.746;2023-03-21T02:17:45;19.90;;;14.00;;
37199;SDS011;23096;50.892;16.746;2023-03-21T02:37:50;18.90;;;11.50;;
37199;SDS011;23096;50.892;16.746;2023-03-21T02:45:50;18.70;;;11.40;;
37199;SDS011;23096;50.892;16.746;2023-03-21T02:48:21;17.20;;;11.90;;
37199;SDS011;23096;50.892;16.746;2023-03-21T02:50:57;18.40;;;12.40;;
37199;SDS011;23096;50.892;16.746;2023-03-21T02:53:27;21.10;;;14.00;;
37199;SDS011;23096;50.892;16.746;2023-03-21T02:58:25;18.90;;;12.50;;
37199;SDS011;23096;50.892;16.746;2023-03-21T03:00:55;19.00;;;13.40;;
37199;SDS011;23096;50.892;16.746;2023-03-21T03:03:27;21.60;;;14.40;;
37199;SDS011;23096;50.892;16.746;2023-03-21T03:05:55;20.90;;;13.90;;
37199;SDS011;23096;50.892;16.746;2023-03-21T03:08:33;21.90;;;14.10;;
37199;SDS011;23096;50.892;16.746;2023-03-21T03:11:34;23.50;;;14.20;;
37199;SDS011;23096;50.892;16.746;2023-03-21T03:14:48;22.50;;;14.30;;
37199;SDS011;23096;50.892;16.746;2023-03-21T03:22:47;22.10;;;13.50;;
37199;SDS011;23096;50.892;16.746;2023-03-21T03:25:31;19.70;;;14.50;;
37199;SDS011;23096;50.892;16.746;2023-03-21T03:30:30;24.20;;;15.20;;
37199;SDS011;23096;50.892;16.746;2023-03-21T03:32:57;22.90;;;14.60;;
37199;SDS011;23096;50.892;16.746;2023-03-21T03:35:27;25.80;;;15.90;;
37199;SDS011;23096;50.892;16.746;2023-03-21T03:37:54;21.20;;;15.60;;
37199;SDS011;23096;50.892;16.746;2023-03-21T03:40:24;26.40;;;17.80;;
37199;SDS011;23096;50.892;16.746;2023-03-21T03:43:04;25.30;;;16.20;;
37199;SDS011;23096;50.892;16.746;2023-03-21T03:45:39;25.40;;;16.50;;
37199;SDS011;23096;50.892;16.746;2023-03-21T03:48:17;30.70;;;17.60;;
37199;SDS011;23096;50.892;16.746;2023-03-21T03:50:51;25.90;;;16.70;;
37199;SDS011;23096;50.892;16.746;2023-03-21T03:53:32;26.30;;;15.90;;
37199;SDS011;23096;50.892;16.746;2023-03-21T03:56:01;27.20;;;17.70;;
37199;SDS011;23096;50.892;16.746;2023-03-21T03:58:30;32.40;;;20.80;;
37199;SDS011;23096;50.892;16.746;2023-03-21T04:00:57;27.90;;;18.80;;
37199;SDS011;23096;50.892;16.746;2023-03-21T04:03:23;30.70;;;19.50;;
37199;SDS011;23096;50.892;16.746;2023-03-21T04:05:49;32.50;;;19.20;;
37199;SDS011;23096;50.892;16.746;2023-03-21T04:08:15;29.80;;;18.80;;
37199;SDS011;23096;50.892;16.746;2023-03-21T04:10:44;30.60;;;18.70;;
37199;SDS011;23096;50.892;16.746;2023-03-21T04:13:10;29.50;;;19.00;;
37199;SDS011;23096;50.892;16.746;2023-03-21T04:15:58;27.00;;;17.70;;
37199;SDS011;23096;50.892;16.746;2023-03-21T04:18:24;29.00;;;19.10;;
37199;SDS011;23096;50.892;16.746;2023-03-21T04:20:51;30.40;;;18.20;;
37199;SDS011;23096;50.892;16.746;2023-03-21T04:23:18;27.40;;;18.70;;
37199;SDS011;23096;50.892;16.746;2023-03-21T04:25:45;29.30;;;18.90;;
37199;SDS011;23096;50.892;16.746;2023-03-21T04:28:11;27.60;;;17.70;;
37199;SDS011;23096;50.892;16.746;2023-03-21T04:30:41;26.40;;;17.50;;
37199;SDS011;23096;50.892;16.746;2023-03-21T04:33:13;28.00;;;18.30;;
37199;SDS011;23096;50.892;16.746;2023-03-21T04:35:40;26.80;;;18.50;;
37199;SDS011;23096;50.892;16.746;2023-03-21T04:38:07;23.40;;;16.20;;
37199;SDS011;23096;50.892;16.746;2023-03-21T04:40:32;30.20;;;18.70;;
37199;SDS011;23096;50.892;16.746;2023-03-21T04:42:59;26.50;;;18.40;;
37199;SDS011;23096;50.892;16.746;2023-03-21T04:45:26;26.80;;;18.60;;
37199;SDS011;23096;50.892;16.746;2023-03-21T04:47:52;29.40;;;19.30;;
37199;SDS011;23096;50.892;16.746;2023-03-21T04:50:17;29.60;;;19.30;;
37199;SDS011;23096;50.892;16.746;2023-03-21T04:52:43;33.20;;;19.70;;
37199;SDS011;23096;50.892;16.746;2023-03-21T04:55:09;29.90;;;19.90;;
37199;SDS011;23096;50.892;16.746;2023-03-21T04:57:37;26.70;;;18.60;;
37199;SDS011;23096;50.892;16.746;2023-03-21T05:00:03;30.60;;;18.30;;
37199;SDS011;23096;50.892;16.746;2023-03-21T05:02:34;31.00;;;20.30;;
37199;SDS011;23096;50.892;16.746;2023-03-21T05:05:00;29.30;;;18.30;;
37199;SDS011;23096;50.892;16.746;2023-03-21T05:07:26;32.80;;;21.60;;
37199;SDS011;23096;50.892;16.746;2023-03-21T05:09:52;32.00;;;20.20;;
37199;SDS011;23096;50.892;16.746;2023-03-21T05:12:17;26.50;;;18.30;;
37199;SDS011;23096;50.892;16.746;2023-03-21T05:14:43;32.00;;;20.90;;
37199;SDS011;23096;50.892;16.746;2023-03-21T05:17:09;32.50;;;21.40;;
37199;SDS011;23096;50.892;16.746;2023-03-21T05:19:39;31.50;;;20.20;;
37199;SDS011;23096;50.892;16.746;2023-03-21T05:22:06;28.30;;;20.00;;
37199;SDS011;23096;50.892;16.746;2023-03-21T05:24:34;32.60;;;21.20;;
37199;SDS011;23096;50.892;16.746;2023-03-21T05:27:04;30.40;;;20.90;;
37199;SDS011;23096;50.892;16.746;2023-03-21T05:29:34;31.60;;;20.30;;
37199;SDS011;23096;50.892;16.746;2023-03-21T05:32:02;31.80;;;21.80;;
37199;SDS011;23096;50.892;16.746;2023-03-21T05:34:28;31.00;;;21.10;;
37199;SDS011;23096;50.892;16.746;2023-03-21T05:36:55;31.80;;;22.10;;
37199;SDS011;23096;50.892;16.746;2023-03-21T05:39:22;33.20;;;21.60;;
37199;SDS011;23096;50.892;16.746;2023-03-21T05:41:57;30.30;;;20.60;;
37199;SDS011;23096;50.892;16.746;2023-03-21T05:44:23;31.90;;;21.20;;
37199;SDS011;23096;50.892;16.746;2023-03-21T05:46:49;35.70;;;22.50;;
37199;SDS011;23096;50.892;16.746;2023-03-21T05:49:20;32.50;;;22.50;;
37199;SDS011;23096;50.892;16.746;2023-03-21T05:51:50;40.30;;;24.00;;
37199;SDS011;23096;50.892;16.746;2023-03-21T05:54:16;33.40;;;22.60;;
37199;SDS011;23096;50.892;16.746;2023-03-21T05:56:44;33.50;;;23.10;;
37199;SDS011;23096;50.892;16.746;2023-03-21T05:59:14;34.50;;;24.00;;
37199;SDS011;23096;50.892;16.746;2023-03-21T06:01:41;32.20;;;22.40;;
37199;SDS011;23096;50.892;16.746;2023-03-21T06:04:09;34.80;;;23.70;;
37199;SDS011;23096;50.892;16.746;2023-03-21T06:06:35;30.40;;;23.00;;
37199;SDS011;23096;50.892;16.746;2023-03-21T06:09:02;39.10;;;24.00;;
37199;SDS011;23096;50.892;16.746;2023-03-21T06:11:32;37.10;;;24.40;;
37199;SDS011;23096;50.892;16.746;2023-03-21T06:14:17;35.50;;;22.80;;
37199;SDS011;23096;50.892;16.746;2023-03-21T06:16:48;32.40;;;23.20;;
37199;SDS011;23096;50.892;16.746;2023-03-21T06:19:13;33.60;;;23.30;;
37199;SDS011;23096;50.892;16.746;2023-03-21T06:21:53;33.50;;;23.30;;
37199;SDS011;23096;50.892;16.746;2023-03-21T06:24:19;36.20;;;24.10;;
37199;SDS011;23096;50.892;16.746;2023-03-21T06:26:45;35.30;;;23.10;;
37199;SDS011;23096;50.892;16.746;2023-03-21T06:29:12;37.10;;;24.70;;
37199;SDS011;23096;50.892;16.746;2023-03-21T06:31:39;34.20;;;23.30;;
37199;SDS011;23096;50.892;16.746;2023-03-21T06:34:06;32.30;;;23.60;;
37199;SDS011;23096;50.892;16.746;2023-03-21T06:36:32;31.90;;;23.10;;
37199;SDS011;23096;50.892;16.746;2023-03-21T06:38:57;35.50;;;23.40;;
37199;SDS011;23096;50.892;16.746;2023-03-21T06:41:23;32.20;;;23.70;;
37199;SDS011;23096;50.892;16.746;2023-03-21T06:43:54;37.80;;;24.90;;
37199;SDS011;23096;50.892;16.746;2023-03-21T06:46:22;35.20;;;23.90;;
37199;SDS011;23096;50.892;16.746;2023-03-21T06:48:48;32.50;;;23.80;;
37199;SDS011;23096;50.892;16.746;2023-03-21T06:51:13;33.50;;;25.40;;
37199;SDS011;23096;50.892;16.746;2023-03-21T06:53:47;37.90;;;24.60;;
37199;SDS011;23096;50.892;16.746;2023-03-21T06:56:25;39.20;;;27.90;;
37199;SDS011;23096;50.892;16.746;2023-03-21T06:58:52;35.40;;;24.70;;
37199;SDS011;23096;50.892;16.746;2023-03-21T07:01:28;33.50;;;24.60;;
37199;SDS011;23096;50.892;16.746;2023-03-21T07:06:26;34.10;;;22.60;;
37199;SDS011;23096;50.892;16.746;2023-03-21T07:08:53;34.60;;;23.80;;
37199;SDS011;23096;50.892;16.746;2023-03-21T07:11:20;34.10;;;22.10;;
37199;SDS011;23096;50.892;16.746;2023-03-21T07:13:46;33.50;;;22.20;;
37199;SDS011;23096;50.892;16.746;2023-03-21T07:16:13;37.80;;;23.50;;
37199;SDS011;23096;50.892;16.746;2023-03-21T07:18:40;32.70;;;23.70;;
37199;SDS011;23096;50.892;16.746;2023-03-21T07:21:06;32.70;;;23.50;;
37199;SDS011;23096;50.892;16.746;2023-03-21T07:23:32;36.90;;;25.00;;
37199;SDS011;23096;50.892;16.746;2023-03-21T07:25:59;33.00;;;24.60;;
37199;SDS011;23096;50.892;16.746;2023-03-21T07:28:25;39.70;;;25.00;;
37199;SDS011;23096;50.892;16.746;2023-03-21T07:30:56;37.60;;;25.60;;
37199;SDS011;23096;50.892;16.746;2023-03-21T07:33:24;38.30;;;25.90;;
37199;SDS011;23096;50.892;16.746;2023-03-21T07:35:52;35.20;;;25.70;;
37199;SDS011;23096;50.892;16.746;2023-03-21T07:38:19;34.80;;;24.20;;
37199;SDS011;23096;50.892;16.746;2023-03-21T07:40:46;52.20;;;39.40;;
37199;SDS011;23096;50.892;16.746;2023-03-21T07:43:13;46.70;;;40.00;;
37199;SDS011;23096;50.892;16.746;2023-03-21T07:45:41;37.00;;;27.90;;
37199;SDS011;23096;50.892;16.746;2023-03-21T07:48:08;36.10;;;25.20;;
37199;SDS011;23096;50.892;16.746;2023-03-21T07:50:35;37.00;;;26.30;;
37199;SDS011;23096;50.892;16.746;2023-03-21T07:53:02;34.90;;;24.80;;
37199;SDS011;23096;50.892;16.746;2023-03-21T07:55:27;34.10;;;25.00;;
37199;SDS011;23096;50.892;16.746;2023-03-21T07:57:53;37.20;;;25.40;;
37199;SDS011;23096;50.892;16.746;2023-03-21T08:00:19;32.50;;;23.00;;
37199;SDS011;23096;50.892;16.746;2023-03-21T08:02:49;39.00;;;26.50;;
37199;SDS011;23096;50.892;16.746;2023-03-21T08:05:22;40.90;;;26.60;;
37199;SDS011;23096;50.892;16.746;2023-03-21T08:07:49;43.20;;;27.30;;
37199;SDS011;23096;50.892;16.746;2023-03-21T08:10:16;37.50;;;25.70;;
37199;SDS011;23096;50.892;16.746;2023-03-21T08:12:42;42.50;;;27.50;;
37199;SDS011;23096;50.892;16.746;2023-03-21T08:15:09;36.70;;;23.20;;
37199;SDS011;23096;50.892;16.746;2023-03-21T08:17:36;37.20;;;26.20;;
37199;SDS011;23096;50.892;16.746;2023-03-21T08:20:04;37.30;;;25.80;;
37199;SDS011;23096;50.892;16.746;2023-03-21T08:22:33;41.60;;;27.20;;
37199;SDS011;23096;50.892;16.746;2023-03-21T08:25:00;37.60;;;26.00;;
37199;SDS011;23096;50.892;16.746;2023-03-21T08:27:28;38.40;;;26.30;;
37199;SDS011;23096;50.892;16.746;2023-03-21T08:29:53;35.60;;;26.50;;
37199;SDS011;23096;50.892;16.746;2023-03-21T08:32:20;37.60;;;26.20;;
37199;SDS011;23096;50.892;16.746;2023-03-21T08:34:50;39.10;;;26.00;;
37199;SDS011;23096;50.892;16.746;2023-03-21T08:37:16;35.70;;;26.30;;
37199;SDS011;23096;50.892;16.746;2023-03-21T08:39:42;30.70;;;22.40;;
37199;SDS011;23096;50.892;16.746;2023-03-21T08:42:07;42.40;;;28.40;;
37199;SDS011;23096;50.892;16.746;2023-03-21T08:44:33;35.10;;;25.20;;
37199;SDS011;23096;50.892;16.746;2023-03-21T08:46:58;33.10;;;23.70;;
37199;SDS011;23096;50.892;16.746;2023-03-21T08:49:24;39.20;;;26.40;;
37199;SDS011;23096;50.892;16.746;2023-03-21T08:51:54;41.00;;;25.30;;
37199;SDS011;23096;50.892;16.746;2023-03-21T08:54:20;37.00;;;25.40;;
37199;SDS011;23096;50.892;16.746;2023-03-21T08:56:46;38.20;;;25.20;;
37199;SDS011;23096;50.892;16.746;2023-03-21T08:59:12;34.60;;;23.50;;
37199;SDS011;23096;50.892;16.746;2023-03-21T09:01:39;33.90;;;23.70;;
37199;SDS011;23096;50.892;16.746;2023-03-21T09:04:05;34.50;;;24.30;;
37199;SDS011;23096;50.892;16.746;2023-03-21T09:06:35;40.30;;;24.90;;
37199;SDS011;23096;50.892;16.746;2023-03-21T09:09:02;39.80;;;25.80;;
37199;SDS011;23096;50.892;16.746;2023-03-21T09:11:31;42.70;;;25.90;;
37199;SDS011;23096;50.892;16.746;2023-03-21T09:13:57;37.30;;;26.10;;
37199;SDS011;23096;50.892;16.746;2023-03-21T09:16:23;41.90;;;27.50;;
37199;SDS011;23096;50.892;16.746;2023-03-21T09:18:49;39.40;;;25.90;;
37199;SDS011;23096;50.892;16.746;2023-03-21T09:21:20;36.00;;;26.00;;
37199;SDS011;23096;50.892;16.746;2023-03-21T09:23:47;37.60;;;26.30;;
37199;SDS011;23096;50.892;16.746;2023-03-21T09:28:45;38.90;;;27.80;;
37199;SDS011;23096;50.892;16.746;2023-03-21T09:31:11;38.90;;;25.60;;
37199;SDS011;23096;50.892;16.746;2023-03-21T09:33:41;39.00;;;27.50;;
37199;SDS011;23096;50.892;16.746;2023-03-21T09:36:08;38.40;;;25.70;;
37199;SDS011;23096;50.892;16.746;2023-03-21T09:38:41;39.90;;;28.10;;
37199;SDS011;23096;50.892;16.746;2023-03-21T09:44:10;36.50;;;25.20;;
37199;SDS011;23096;50.892;16.746;2023-03-21T09:50:15;40.30;;;26.90;;
37199;SDS011;23096;50.892;16.746;2023-03-21T09:55:42;40.30;;;26.90;;
37199;SDS011;23096;50.892;16.746;2023-03-21T09:58:21;43.80;;;28.20;;
37199;SDS011;23096;50.892;16.746;2023-03-21T10:00:51;42.60;;;28.90;;
37199;SDS011;23096;50.892;16.746;2023-03-21T10:03:27;41.60;;;30.10;;
37199;SDS011;23096;50.892;16.746;2023-03-21T10:05:59;41.50;;;29.90;;
37199;SDS011;23096;50.892;16.746;2023-03-21T10:11:21;41.10;;;27.60;;
37199;SDS011;23096;50.892;16.746;2023-03-21T10:13:56;42.90;;;29.40;;
37199;SDS011;23096;50.892;16.746;2023-03-21T10:19:13;40.20;;;27.60;;
37199;SDS011;23096;50.892;16.746;2023-03-21T10:21:41;44.10;;;30.30;;
37199;SDS011;23096;50.892;16.746;2023-03-21T10:24:16;40.10;;;29.70;;
37199;SDS011;23096;50.892;16.746;2023-03-21T10:26:46;53.40;;;31.70;;
37199;SDS011;23096;50.892;16.746;2023-03-21T10:29:14;42.80;;;30.00;;
37199;SDS011;23096;50.892;16.746;2023-03-21T10:31:43;44.40;;;29.90;;
37199;SDS011;23096;50.892;16.746;2023-03-21T10:34:33;47.30;;;29.60;;
37199;SDS011;23096;50.892;16.746;2023-03-21T10:37:09;47.00;;;30.70;;
37199;SDS011;23096;50.892;16.746;2023-03-21T10:42:04;48.90;;;31.80;;
37199;SDS011;23096;50.892;16.746;2023-03-21T10:44:30;45.10;;;32.20;;
37199;SDS011;23096;50.892;16.746;2023-03-21T10:47:07;42.40;;;30.70;;
37199;SDS011;23096;50.892;16.746;2023-03-21T10:49:35;39.80;;;29.40;;
37199;SDS011;23096;50.892;16.746;2023-03-21T10:52:03;43.50;;;30.80;;
37199;SDS011;23096;50.892;16.746;2023-03-21T10:54:32;45.20;;;31.70;;
37199;SDS011;23096;50.892;16.746;2023-03-21T10:59:40;42.40;;;29.10;;
37199;SDS011;23096;50.892;16.746;2023-03-21T11:02:18;42.60;;;28.90;;
37199;SDS011;23096;50.892;16.746;2023-03-21T11:04:51;42.70;;;30.00;;
37199;SDS011;23096;50.892;16.746;2023-03-21T11:07:18;43.70;;;28.90;;
37199;SDS011;23096;50.892;16.746;2023-03-21T11:09:46;41.40;;;30.20;;
37199;SDS011;23096;50.892;16.746;2023-03-21T11:12:14;40.60;;;28.00;;
37199;SDS011;23096;50.892;16.746;2023-03-21T11:14:43;38.50;;;28.40;;
37199;SDS011;23096;50.892;16.746;2023-03-21T11:19:45;38.40;;;27.80;;
37199;SDS011;23096;50.892;16.746;2023-03-21T11:22:37;41.70;;;28.50;;
37199;SDS011;23096;50.892;16.746;2023-03-21T11:25:06;44.90;;;29.90;;
37199;SDS011;23096;50.892;16.746;2023-03-21T11:27:36;49.10;;;31.10;;
37199;SDS011;23096;50.892;16.746;2023-03-21T11:30:18;44.70;;;30.80;;
37199;SDS011;23096;50.892;16.746;2023-03-21T11:32:58;44.20;;;29.00;;
37199;SDS011;23096;50.892;16.746;2023-03-21T11:35:32;41.00;;;28.50;;
37199;SDS011;23096;50.892;16.746;2023-03-21T11:37:59;43.90;;;29.10;;
37199;SDS011;23096;50.892;16.746;2023-03-21T11:40:26;40.20;;;29.80;;
37199;SDS011;23096;50.892;16.746;2023-03-21T11:42:54;43.30;;;29.50;;
37199;SDS011;23096;50.892;16.746;2023-03-21T11:45:26;42.00;;;28.10;;
37199;SDS011;23096;50.892;16.746;2023-03-21T11:47:53;38.80;;;26.50;;
37199;SDS011;23096;50.892;16.746;2023-03-21T11:50:25;46.10;;;29.20;;
37199;SDS011;23096;50.892;16.746;2023-03-21T11:55:53;35.20;;;26.50;;
37199;SDS011;23096;50.892;16.746;2023-03-21T11:58:36;39.90;;;27.40;;
37199;SDS011;23096;50.892;16.746;2023-03-21T12:03:57;37.50;;;25.50;;
37199;SDS011;23096;50.892;16.746;2023-03-21T12:06:34;34.90;;;26.10;;
37199;SDS011;23096;50.892;16.746;2023-03-21T12:09:45;33.50;;;25.10;;
37199;SDS011;23096;50.892;16.746;2023-03-21T12:17:39;37.40;;;28.10;;
37199;SDS011;23096;50.892;16.746;2023-03-21T12:25:26;33.80;;;24.50;;
37199;SDS011;23096;50.892;16.746;2023-03-21T12:41:27;36.70;;;26.20;;
37199;SDS011;23096;50.892;16.746;2023-03-21T12:52:18;32.40;;;24.10;;
37199;SDS011;23096;50.892;16.746;2023-03-21T12:54:59;34.00;;;24.40;;
37199;SDS011;23096;50.892;16.746;2023-03-21T12:57:32;30.10;;;22.70;;
37199;SDS011;23096;50.892;16.746;2023-03-21T13:02:41;35.20;;;26.20;;
37199;SDS011;23096;50.892;16.746;2023-03-21T13:05:30;36.70;;;26.90;;
37199;SDS011;23096;50.892;16.746;2023-03-21T13:10:38;35.70;;;25.60;;
37199;SDS011;23096;50.892;16.746;2023-03-21T13:15:58;38.40;;;25.70;;
37199;SDS011;23096;50.892;16.746;2023-03-21T13:18:34;37.70;;;26.50;;
37199;SDS011;23096;50.892;16.746;2023-03-21T13:21:03;41.70;;;28.50;;
37199;SDS011;23096;50.892;16.746;2023-03-21T13:23:38;36.40;;;27.30;;
37199;SDS011;23096;50.892;16.746;2023-03-21T13:26:07;36.00;;;28.50;;
37199;SDS011;23096;50.892;16.746;2023-03-21T13:28:35;38.80;;;30.20;;
37199;SDS011;23096;50.892;16.746;2023-03-21T13:31:14;42.90;;;29.40;;
37199;SDS011;23096;50.892;16.746;2023-03-21T13:33:50;40.50;;;29.50;;
37199;SDS011;23096;50.892;16.746;2023-03-21T13:36:25;38.90;;;30.20;;
37199;SDS011;23096;50.892;16.746;2023-03-21T13:38:54;39.10;;;27.70;;
37199;SDS011;23096;50.892;16.746;2023-03-21T13:41:34;37.40;;;28.90;;
37199;SDS011;23096;50.892;16.746;2023-03-21T13:54:02;47.80;;;32.70;;
37199;SDS011;23096;50.892;16.746;2023-03-21T13:59:12;38.00;;;27.60;;
37199;SDS011;23096;50.892;16.746;2023-03-21T14:04:46;45.50;;;29.20;;
37199;SDS011;23096;50.892;16.746;2023-03-21T14:07:30;41.50;;;29.70;;
37199;SDS011;23096;50.892;16.746;2023-03-21T14:10:19;54.50;;;28.40;;
37199;SDS011;23096;50.892;16.746;2023-03-21T14:12:47;43.50;;;29.00;;
37199;SDS011;23096;50.892;16.746;2023-03-21T14:15:21;44.80;;;29.90;;
37199;SDS011;23096;50.892;16.746;2023-03-21T14:17:48;37.80;;;28.70;;
37199;SDS011;23096;50.892;16.746;2023-03-21T14:20:21;37.10;;;27.40;;
37199;SDS011;23096;50.892;16.746;2023-03-21T14:22:49;39.10;;;29.70;;
37199;SDS011;23096;50.892;16.746;2023-03-21T14:25:16;40.80;;;30.00;;
37199;SDS011;23096;50.892;16.746;2023-03-21T14:27:48;40.90;;;30.40;;
37199;SDS011;23096;50.892;16.746;2023-03-21T14:30:24;46.90;;;33.70;;
37199;SDS011;23096;50.892;16.746;2023-03-21T14:32:55;42.70;;;31.10;;
37199;SDS011;23096;50.892;16.746;2023-03-21T14:35:24;45.70;;;33.10;;
37199;SDS011;23096;50.892;16.746;2023-03-21T14:37:55;47.70;;;32.80;;
37199;SDS011;23096;50.892;16.746;2023-03-21T14:40:25;87.10;;;58.20;;
37199;SDS011;23096;50.892;16.746;2023-03-21T14:42:53;84.30;;;61.10;;
37199;SDS011;23096;50.892;16.746;2023-03-21T14:45:20;122.00;;;86.70;;
37199;SDS011;23096;50.892;16.746;2023-03-21T14:47:53;60.00;;;45.40;;
37199;SDS011;23096;50.892;16.746;2023-03-21T14:50:19;72.50;;;49.70;;
37199;SDS011;23096;50.892;16.746;2023-03-21T14:52:47;52.30;;;38.10;;
37199;SDS011;23096;50.892;16.746;2023-03-21T14:55:14;53.70;;;40.20;;
37199;SDS011;23096;50.892;16.746;2023-03-21T14:57:40;57.60;;;41.80;;
37199;SDS011;23096;50.892;16.746;2023-03-21T15:00:07;67.50;;;43.50;;
37199;SDS011;23096;50.892;16.746;2023-03-21T15:02:41;59.50;;;41.90;;
37199;SDS011;23096;50.892;16.746;2023-03-21T15:05:22;55.30;;;41.00;;
37199;SDS011;23096;50.892;16.746;2023-03-21T15:08:00;49.10;;;36.20;;
37199;SDS011;23096;50.892;16.746;2023-03-21T15:10:32;47.10;;;33.30;;
37199;SDS011;23096;50.892;16.746;2023-03-21T15:12:58;56.30;;;35.20;;
37199;SDS011;23096;50.892;16.746;2023-03-21T15:15:27;49.80;;;36.90;;
37199;SDS011;23096;50.892;16.746;2023-03-21T15:17:54;46.30;;;32.70;;
37199;SDS011;23096;50.892;16.746;2023-03-21T15:20:25;41.20;;;29.50;;
37199;SDS011;23096;50.892;16.746;2023-03-21T15:22:56;48.20;;;34.10;;
37199;SDS011;23096;50.892;16.746;2023-03-21T15:25:29;47.10;;;34.70;;
37199;SDS011;23096;50.892;16.746;2023-03-21T15:27:57;48.10;;;34.50;;
37199;SDS011;23096;50.892;16.746;2023-03-21T15:30:28;51.90;;;35.20;;
37199;SDS011;23096;50.892;16.746;2023-03-21T15:32:56;47.50;;;35.20;;
37199;SDS011;23096;50.892;16.746;2023-03-21T15:35:52;41.20;;;31.00;;
37199;SDS011;23096;50.892;16.746;2023-03-21T15:38:22;44.70;;;32.90;;
37199;SDS011;23096;50.892;16.746;2023-03-21T15:43:45;42.40;;;29.90;;
37199;SDS011;23096;50.892;16.746;2023-03-21T15:46:15;42.80;;;31.00;;
37199;SDS011;23096;50.892;16.746;2023-03-21T15:49:33;41.10;;;30.30;;
37199;SDS011;23096;50.892;16.746;2023-03-21T15:54:23;41.60;;;30.00;;
37199;SDS011;23096;50.892;16.746;2023-03-21T15:56:55;53.70;;;33.00;;
37199;SDS011;23096;50.892;16.746;2023-03-21T15:59:31;50.40;;;34.40;;
37199;SDS011;23096;50.892;16.746;2023-03-21T16:01:59;49.70;;;34.00;;
37199;SDS011;23096;50.892;16.746;2023-03-21T16:04:25;53.50;;;38.00;;
37199;SDS011;23096;50.892;16.746;2023-03-21T16:06:52;56.10;;;37.60;;
37199;SDS011;23096;50.892;16.746;2023-03-21T16:09:22;58.10;;;43.10;;
37199;SDS011;23096;50.892;16.746;2023-03-21T16:11:55;63.80;;;39.30;;
37199;SDS011;23096;50.892;16.746;2023-03-21T16:14:24;56.20;;;38.70;;
37199;SDS011;23096;50.892;16.746;2023-03-21T16:16:56;50.30;;;33.30;;
37199;SDS011;23096;50.892;16.746;2023-03-21T16:19:23;54.30;;;36.00;;
37199;SDS011;23096;50.892;16.746;2023-03-21T16:21:49;49.70;;;33.50;;
37199;SDS011;23096;50.892;16.746;2023-03-21T16:24:14;54.40;;;34.90;;
37199;SDS011;23096;50.892;16.746;2023-03-21T16:26:43;67.70;;;43.80;;
37199;SDS011;23096;50.892;16.746;2023-03-21T16:29:15;62.50;;;40.60;;
37199;SDS011;23096;50.892;16.746;2023-03-21T16:31:42;51.40;;;34.90;;
37199;SDS011;23096;50.892;16.746;2023-03-21T16:34:08;47.90;;;34.80;;
37199;SDS011;23096;50.892;16.746;2023-03-21T16:36:38;46.50;;;32.60;;
37199;SDS011;23096;50.892;16.746;2023-03-21T16:39:16;50.90;;;36.10;;